Batman Airport Batman TR
ICAO: LTCJ
IATA: BAL
Category: Medium
Scheduled Services: Yes

Elevation: 1822 ft
TransAlt. 7000 ft.

Airport Communications:
DIYARBAKIR APP:122.1
GND:121.95
TWR:122.1

LTCJ Zoom In..

If you have problems with the map follow the link
https://www.worldairports.se/pages/airport.php?
ICAO=LTCJ

Runways:

(A) RW 02 length 10000 ft width 148 ft
ILS 108.10 / hdg 21

(B) RW 20 length 10000 ft width 148 ft
---- / hdg 201

Location; LTCJ
Day. 22 / Time. 11.50 Zulu
* QNH: 1017
* Temperature: 13° c. 55.4°f.
* Wind from: 060° Speed 03 kn.
Dewpoint: 01° c.
Visibility: 9000 m.
Clouds: Scattered 4000 ft.
Clouds: Broken 1000 ft.

LTCJ 221150Z 06003KT 020V120 9000 SCT040 BKN100 13/01 Q1017


Wind From 060°
Speed 03 kn.

 
 
jpsmedia.com for Web Design worldairports.se 2019   terms of use